Time;durP1;ratioP1;P1;durP2;ratioP2;P2;SDS_P1;SDS_P2;PMS_P1;PMS_P2;Temp;Humidity;BMP_temperature;BMP_pressure;BME280_temperature;BME280_humidity;BME280_pressure;Samples;Min_cycle;Max_cycle;Signal;HPM_P1;HPM_P2
2021/11/15 14:04:45;;;;;;;42.80;27.35;;;;;;;7.17;100.00;100586.65;1811932;78;22771;-67
2021/11/15 14:07:20;;;;;;;40.33;26.68;;;;;;;7.10;100.00;100590.81;1780165;79;20950;-67
2021/11/15 14:09:50;;;;;;;41.28;27.20;;;;;;;7.06;100.00;100595.47;1777771;79;22024;-65
2021/11/15 14:12:19;;;;;;;59.98;27.40;;;;;;;7.04;100.00;100593.64;1774792;80;20962;-65
2021/11/15 14:14:50;;;;;;;39.05;26.25;;;;;;;7.02;100.00;100594.02;1773345;80;20976;-67
2021/11/15 14:17:19;;;;;;;43.50;25.88;;;;;;;6.99;100.00;100596.13;1771795;80;20968;-66
2021/11/15 14:19:46;;;;;;;42.83;26.70;;;;;;;6.98;100.00;100595.66;1781989;80;20915;-65
2021/11/15 14:22:14;;;;;;;39.08;26.20;;;;;;;6.93;100.00;100595.94;1779167;79;21330;-67
2021/11/15 14:24:43;;;;;;;33.95;25.30;;;;;;;6.90;100.00;100601.97;1777079;79;20935;-65
2021/11/15 14:27:11;;;;;;;39.75;26.68;;;;;;;6.88;100.00;100600.15;1774216;80;20990;-65
2021/11/15 14:29:39;;;;;;;37.23;25.80;;;;;;;6.84;100.00;100614.00;1774243;80;21035;-67
2021/11/15 14:32:08;;;;;;;35.08;26.05;;;;;;;6.79;100.00;100609.03;1753963;80;20938;-68
2021/11/15 14:34:42;;;;;;;49.70;25.27;;;;;;;6.74;100.00;100608.89;1774020;80;21123;-66
2021/11/15 14:37:05;;;;;;;33.60;23.80;;;;;;;6.71;100.00;100614.03;1777675;80;20980;-66
2021/11/15 14:39:34;;;;;;;49.42;25.32;;;;;;;6.70;100.00;100620.12;1774733;79;21555;-66
2021/11/15 14:42:01;;;;;;;35.95;23.77;;;;;;;6.69;100.00;100619.65;1772066;79;20978;-65
2021/11/15 14:44:29;;;;;;;50.48;25.57;;;;;;;6.65;100.00;100619.08;1779167;80;20972;-68
2021/11/15 14:46:57;;;;;;;55.95;26.65;;;;;;;6.64;100.00;100621.23;1770518;79;21115;-68
2021/11/15 14:49:25;;;;;;;41.53;25.05;;;;;;;6.61;100.00;100622.41;1758459;80;21401;-67
2021/11/15 14:51:53;;;;;;;37.08;24.32;;;;;;;6.59;100.00;100631.53;1757926;80;20921;-67
2021/11/15 14:54:22;;;;;;;34.45;24.57;;;;;;;6.56;100.00;100627.50;1756931;80;21017;-66
2021/11/15 14:56:50;;;;;;;57.90;26.10;;;;;;;6.55;100.00;100630.95;1758265;80;21555;-63
2021/11/15 14:59:18;;;;;;;43.45;25.50;;;;;;;6.52;100.00;100637.83;1756775;80;21141;-68
2021/11/15 15:01:50;;;;;;;47.17;26.12;;;;;;;6.48;100.00;100642.50;1758438;80;20889;-65
2021/11/15 15:04:19;;;;;;;39.50;26.52;;;;;;;6.45;100.00;100643.28;1755173;80;21067;-76
2021/11/15 15:06:47;;;;;;;66.20;29.12;;;;;;;6.40;100.00;100643.55;1753861;80;20905;-69
2021/11/15 15:09:15;;;;;;;47.93;26.42;;;;;;;6.37;100.00;100650.00;1753114;80;20852;-71
2021/11/15 15:11:44;;;;;;;39.30;27.37;;;;;;;6.33;100.00;100657.28;1753347;80;21463;-69
2021/11/15 15:14:13;;;;;;;41.05;27.05;;;;;;;6.28;100.00;100654.50;1733762;82;20956;-68
2021/11/15 15:16:42;;;;;;;55.85;28.38;;;;;;;6.25;100.00;100655.70;1752461;80;20928;-68
2021/11/15 15:19:20;;;;;;;51.45;27.62;;;;;;;6.20;100.00;100659.89;1733747;82;20987;-67
2021/11/15 15:21:45;;;;;;;43.87;26.87;;;;;;;6.19;100.00;100660.73;1755100;80;20959;-66
2021/11/15 15:24:16;;;;;;;48.23;26.27;;;;;;;6.14;100.00;100652.20;1756876;80;21443;-69
2021/11/15 15:26:45;;;;;;;37.60;25.55;;;;;;;6.08;100.00;100659.42;1751443;79;20992;-68
2021/11/15 15:29:16;;;;;;;62.45;26.05;;;;;;;6.04;100.00;100666.70;1760490;80;20892;-64
2021/11/15 15:31:45;;;;;;;71.22;28.05;;;;;;;6.01;100.00;100665.28;1722084;82;21586;-69
2021/11/15 15:34:14;;;;;;;216.60;39.25;;;;;;;5.99;100.00;100674.39;1746103;80;20946;-67
2021/11/15 15:36:43;;;;;;;85.17;32.70;;;;;;;5.96;100.00;100670.77;1752376;80;21176;-67
2021/11/15 15:39:12;;;;;;;101.85;51.13;;;;;;;5.93;100.00;100671.97;1751473;80;21552;-66
2021/11/15 15:41:40;;;;;;;128.02;55.40;;;;;;;5.90;100.00;100682.33;1751434;80;21033;-68
2021/11/15 15:44:09;;;;;;;95.32;57.00;;;;;;;5.87;100.00;100680.87;1751848;80;21601;-67
2021/11/15 15:46:37;;;;;;;86.05;49.27;;;;;;;5.83;100.00;100677.25;1752479;80;20882;-69
2021/11/15 15:49:05;;;;;;;55.65;37.30;;;;;;;5.81;100.00;100682.85;1752696;80;21104;-68
2021/11/15 15:51:33;;;;;;;51.73;33.60;;;;;;;5.78;100.00;100686.66;1752268;80;20858;-69
2021/11/15 15:54:02;;;;;;;46.33;30.57;;;;;;;5.74;100.00;100687.39;1752165;80;20937;-68
2021/11/15 15:56:33;;;;;;;48.75;31.75;;;;;;;5.70;100.00;100692.03;1750063;80;20898;-67
2021/11/15 15:59:01;;;;;;;47.40;31.75;;;;;;;5.66;100.00;100690.09;1752410;80;20931;-68
2021/11/15 16:01:28;;;;;;;49.95;31.60;;;;;;;5.62;100.00;100698.67;1751458;80;21141;-69
2021/11/15 16:12:14;;;;;;;50.95;31.27;;;;;;;5.51;100.00;100696.95;1762012;80;20945;-65
2021/11/15 16:19:51;;;;;;;142.45;35.28;;;;;;;5.41;100.00;100707.89;1774177;81;20865;-65
2021/11/15 16:22:18;;;;;;;54.60;31.45;;;;;;;5.38;100.00;100707.78;1773940;79;21384;-64
2021/11/15 16:24:46;;;;;;;48.98;32.23;;;;;;;5.38;100.00;100716.94;1774980;80;20927;-66
2021/11/15 16:27:14;;;;;;;51.60;33.95;;;;;;;5.36;100.00;100719.49;1764884;80;20967;-66
2021/11/15 16:29:41;;;;;;;48.85;32.75;;;;;;;5.34;100.00;100726.39;1775545;80;20900;-65
2021/11/15 16:32:09;;;;;;;52.13;32.67;;;;;;;5.33;100.00;100726.33;1776532;80;20899;-65
2021/11/15 16:34:37;;;;;;;48.50;34.03;;;;;;;5.33;100.00;100724.61;1782973;80;21426;-66
2021/11/15 16:37:05;;;;;;;50.78;34.33;;;;;;;5.34;100.00;100730.31;1771730;80;21471;-65
2021/11/15 16:39:32;;;;;;;48.58;33.50;;;;;;;5.33;100.00;100728.94;1769147;80;21113;-65
2021/11/15 16:42:00;;;;;;;48.40;35.03;;;;;;;5.30;100.00;100724.90;1769481;80;20984;-64
2021/11/15 16:44:32;;;;;;;47.80;33.33;;;;;;;5.28;100.00;100725.25;1773988;80;21601;-65
2021/11/15 16:46:58;;;;;;;52.30;36.05;;;;;;;5.24;100.00;100723.34;1772735;80;21453;-65
2021/11/15 16:49:26;;;;;;;57.83;36.73;;;;;;;5.20;100.00;100731.48;1775331;80;20951;-65
2021/11/15 16:51:53;;;;;;;54.90;38.55;;;;;;;5.17;100.00;100735.67;1770101;80;21121;-65
2021/11/15 16:54:22;;;;;;;55.15;36.28;;;;;;;5.10;100.00;100735.83;1774946;80;20902;-64
2021/11/15 16:56:50;;;;;;;55.95;37.00;;;;;;;5.05;100.00;100740.88;1773817;80;20904;-64
2021/11/15 16:59:20;;;;;;;56.68;38.70;;;;;;;5.02;100.00;100744.67;1773269;80;20941;-64
2021/11/15 17:01:55;;;;;;;58.00;39.33;;;;;;;4.99;100.00;100750.19;1773204;80;20874;-65
2021/11/15 17:04:17;;;;;;;60.25;39.42;;;;;;;4.91;100.00;100756.41;1765124;80;21100;-65
2021/11/15 17:06:46;;;;;;;54.48;37.33;;;;;;;4.84;100.00;100754.37;1761279;80;21426;-65
2021/11/15 17:09:15;;;;;;;56.90;38.70;;;;;;;4.78;100.00;100761.95;1765332;80;20913;-65
2021/11/15 17:11:43;;;;;;;53.68;36.23;;;;;;;4.74;100.00;100766.58;1769177;80;21631;-66
2021/11/15 17:14:11;;;;;;;55.70;35.83;;;;;;;4.68;100.00;100775.02;1766839;80;21732;-66
2021/11/15 17:16:39;;;;;;;49.18;33.23;;;;;;;4.66;100.00;100775.77;1766672;80;21062;-65
2021/11/15 17:19:07;;;;;;;50.70;34.50;;;;;;;4.63;100.00;100769.11;1770006;80;21520;-65
2021/11/15 17:21:35;;;;;;;51.88;34.53;;;;;;;4.62;100.00;100775.16;1768452;80;20947;-67
2021/11/15 17:24:02;;;;;;;53.63;34.00;;;;;;;4.61;100.00;100777.30;1763153;80;20884;-66
2021/11/15 17:26:31;;;;;;;58.85;36.35;;;;;;;4.59;100.00;100778.95;1766345;80;21455;-67
2021/11/15 17:29:02;;;;;;;56.37;36.90;;;;;;;4.53;100.00;100776.96;1741556;80;21100;-68
2021/11/15 17:31:32;;;;;;;57.48;37.55;;;;;;;4.46;100.00;100777.52;1759703;80;20946;-66
2021/11/15 17:33:59;;;;;;;58.65;37.58;;;;;;;4.42;100.00;100784.74;1761809;80;20891;-67
2021/11/15 17:36:27;;;;;;;53.10;35.20;;;;;;;4.38;100.00;100799.39;1759707;80;21555;-67
2021/11/15 17:38:55;;;;;;;58.08;35.75;;;;;;;4.35;100.00;100800.56;1744053;80;21511;-66
2021/11/15 17:41:22;;;;;;;59.30;36.93;;;;;;;4.36;100.00;100799.73;1762646;80;21450;-66
2021/11/15 17:43:50;;;;;;;56.88;37.42;;;;;;;4.36;100.00;100798.42;1769384;80;20880;-67
2021/11/15 17:46:18;;;;;;;62.43;38.38;;;;;;;4.32;100.00;100793.89;1763893;80;21425;-67
2021/11/15 17:48:50;;;;;;;60.48;39.18;;;;;;;4.28;100.00;100803.72;1767386;80;21483;-66
2021/11/15 17:51:23;;;;;;;43.20;29.20;;;;;;;4.25;100.00;100804.85;1759971;80;20896;-66
2021/11/15 17:56:18;;;;;;;47.43;33.18;;;;;;;4.11;100.00;100817.28;1764142;80;20843;-66
2021/11/15 18:01:22;;;;;;;45.70;31.77;;;;;;;3.90;100.00;100821.52;1764978;80;20870;-67
2021/11/15 18:03:53;;;;;;;48.15;33.23;;;;;;;3.79;100.00;100822.72;1768251;80;20977;-67
2021/11/15 18:06:20;;;;;;;52.05;34.05;;;;;;;3.68;100.00;100832.62;1771424;80;21104;-68
2021/11/15 18:08:48;;;;;;;48.35;32.88;;;;;;;3.59;100.00;100833.48;1770479;80;20941;-67
2021/11/15 18:11:16;;;;;;;51.20;31.93;;;;;;;3.49;100.00;100836.47;1774801;80;20933;-66
2021/11/15 18:13:48;;;;;;;46.05;31.35;;;;;;;3.41;100.00;100845.22;1773947;80;21448;-67
2021/11/15 18:16:21;;;;;;;42.65;31.00;;;;;;;3.34;100.00;100850.95;1783466;80;20931;-67
2021/11/15 18:18:47;;;;;;;47.15;32.73;;;;;;;3.33;100.00;100852.19;1783423;80;21423;-67
2021/11/15 18:21:19;;;;;;;46.73;31.33;;;;;;;3.30;100.00;100864.63;1783721;80;21371;-67
2021/11/15 18:23:49;;;;;;;46.23;31.95;;;;;;;3.28;100.00;100874.50;1782749;80;21351;-67
2021/11/15 18:26:18;;;;;;;48.73;33.38;;;;;;;3.28;100.00;100869.28;1752630;81;21348;-67
2021/11/15 18:28:45;;;;;;;44.15;31.50;;;;;;;3.20;100.00;100877.13;1766327;80;20931;-67
2021/11/15 18:31:15;;;;;;;46.20;31.12;;;;;;;3.14;100.00;100882.52;1779508;80;21101;-67
2021/11/15 18:33:44;;;;;;;49.85;31.55;;;;;;;3.13;100.00;100888.96;1778453;80;20992;-67
2021/11/15 18:36:12;;;;;;;48.45;31.12;;;;;;;3.10;100.00;100883.59;1766298;80;21558;-66
2021/11/15 18:38:40;;;;;;;48.70;30.92;;;;;;;3.07;100.00;100888.23;1772921;80;21034;-67
2021/11/15 18:41:09;;;;;;;51.68;31.57;;;;;;;3.05;100.00;100885.06;1768848;80;20854;-66
2021/11/15 18:43:39;;;;;;;49.42;30.70;;;;;;;3.03;100.00;100890.20;1766258;80;21786;-65
2021/11/15 18:46:06;;;;;;;46.20;31.33;;;;;;;3.02;100.00;100899.25;1774384;80;20928;-65
2021/11/15 18:48:36;;;;;;;44.77;29.72;;;;;;;2.98;100.00;100897.30;1777934;80;21435;-66
2021/11/15 18:51:05;;;;;;;40.17;29.57;;;;;;;2.97;100.00;100904.23;1768052;80;20901;-66
2021/11/15 18:53:36;;;;;;;42.13;29.65;;;;;;;2.97;100.00;100908.14;1770656;80;20942;-65
2021/11/15 18:56:04;;;;;;;45.52;29.87;;;;;;;2.95;100.00;100911.07;1777275;79;21269;-66
2021/11/15 18:58:32;;;;;;;46.65;30.30;;;;;;;2.93;100.00;100910.50;1774838;80;21446;-67
2021/11/15 19:01:00;;;;;;;45.12;29.92;;;;;;;2.91;100.00;100913.44;1771130;80;21386;-66
2021/11/15 19:03:31;;;;;;;44.73;30.27;;;;;;;2.87;100.00;100912.38;1771607;80;20931;-66
2021/11/15 19:06:00;;;;;;;44.33;28.65;;;;;;;2.87;100.00;100920.20;1769441;79;21477;-69
2021/11/15 19:08:40;;;;;;;43.30;29.15;;;;;;;2.84;100.00;100926.55;1774643;80;21432;-68
2021/11/15 19:11:37;;;;;;;40.48;27.95;;;;;;;2.83;100.00;100924.73;1765967;80;20846;-67
2021/11/15 19:13:45;;;;;;;45.17;28.57;;;;;;;2.80;100.00;100928.47;1759515;80;21453;-67
2021/11/15 19:16:08;;;;;;;43.38;28.60;;;;;;;2.78;100.00;100928.80;1768311;80;20893;-68
2021/11/15 19:18:36;;;;;;;45.65;29.80;;;;;;;2.78;100.00;100939.23;1781199;80;20915;-68
2021/11/15 19:21:06;;;;;;;43.90;27.82;;;;;;;2.78;100.00;100940.53;1774293;80;21167;-68
2021/11/15 19:23:34;;;;;;;39.58;26.55;;;;;;;2.77;100.00;100943.54;1770916;79;21372;-67
2021/11/15 19:26:05;;;;;;;39.98;25.25;;;;;;;2.74;100.00;100943.38;1780285;80;20971;-68
2021/11/15 19:28:32;;;;;;;39.83;26.52;;;;;;;2.73;100.00;100950.70;1783717;80;21331;-67
2021/11/15 19:31:00;;;;;;;41.55;27.07;;;;;;;2.71;100.00;100959.25;1783750;80;21478;-68
2021/11/15 19:33:27;;;;;;;38.48;26.48;;;;;;;2.68;100.00;100958.69;1749902;80;21102;-68
2021/11/15 19:35:55;;;;;;;36.85;26.10;;;;;;;2.66;100.00;100966.83;1775451;80;21411;-68
2021/11/15 19:38:24;;;;;;;39.92;25.82;;;;;;;2.65;100.00;100973.26;1757725;80;20905;-68
2021/11/15 19:40:52;;;;;;;37.63;25.08;;;;;;;2.63;100.00;100976.19;1768366;80;21472;-68
2021/11/15 19:43:20;;;;;;;37.50;25.45;;;;;;;2.64;100.00;100985.39;1768315;80;20997;-69
2021/11/15 19:45:48;;;;;;;40.92;26.30;;;;;;;2.66;100.00;100978.95;1773836;80;21085;-68
2021/11/15 19:48:15;;;;;;;38.10;26.42;;;;;;;2.66;100.00;100984.17;1770811;80;21394;-68
2021/11/15 19:50:44;;;;;;;40.92;26.33;;;;;;;2.67;100.00;100983.36;1766519;80;20856;-67
2021/11/15 19:53:14;;;;;;;37.65;25.72;;;;;;;2.69;100.00;100980.02;1773382;80;20892;-67
2021/11/15 19:55:43;;;;;;;36.53;24.95;;;;;;;2.70;100.00;100986.13;1782640;79;20935;-68
2021/11/15 19:58:15;;;;;;;38.10;26.42;;;;;;;2.70;100.00;100983.52;1770863;81;21455;-64
2021/11/15 20:00:50;;;;;;;37.05;25.15;;;;;;;2.71;100.00;100981.41;1782602;80;20895;-65
2021/11/15 20:03:18;;;;;;;37.42;25.25;;;;;;;2.72;100.00;100988.41;1782734;80;21756;-66
2021/11/15 20:05:50;;;;;;;37.17;25.10;;;;;;;2.71;100.00;100997.04;1777154;80;21344;-64
2021/11/15 20:08:19;;;;;;;40.88;26.35;;;;;;;2.69;100.00;101005.18;1782627;80;20971;-67
2021/11/15 20:10:47;;;;;;;37.28;26.12;;;;;;;2.65;100.00;101004.11;1783660;80;21113;-65
2021/11/15 20:13:15;;;;;;;36.75;26.05;;;;;;;2.62;100.00;101006.96;1757828;80;20904;-66
2021/11/15 20:15:43;;;;;;;42.90;25.60;;;;;;;2.58;100.00;101007.61;1780497;80;20991;-64
2021/11/15 20:18:11;;;;;;;37.48;25.70;;;;;;;2.56;100.00;101011.42;1783633;80;20942;-64
2021/11/15 20:20:43;;;;;;;36.50;24.23;;;;;;;2.54;100.00;101002.63;1782060;80;20908;-64
2021/11/15 20:23:11;;;;;;;35.05;25.20;;;;;;;2.57;100.00;101019.73;1776842;80;21075;-64
2021/11/15 20:25:39;;;;;;;38.33;26.23;;;;;;;2.57;100.00;101028.85;1775988;79;20892;-64
2021/11/15 20:28:06;;;;;;;35.23;24.92;;;;;;;2.58;100.00;101022.83;1773353;79;21453;-64
2021/11/15 20:30:35;;;;;;;37.78;25.23;;;;;;;2.59;100.00;101026.33;1760699;80;20908;-64
2021/11/15 20:33:03;;;;;;;37.98;25.20;;;;;;;2.59;100.00;101032.84;1752752;82;20860;-64
2021/11/15 20:35:33;;;;;;;32.50;23.57;;;;;;;2.56;100.00;101032.67;1752716;82;21102;-65
2021/11/15 20:38:03;;;;;;;25.97;18.47;;;;;;;2.56;100.00;101033.57;1752918;82;20900;-65
2021/11/15 20:40:31;;;;;;;36.58;24.27;;;;;;;2.57;100.00;101033.16;1723244;82;21493;-66
2021/11/15 20:42:59;;;;;;;34.63;24.50;;;;;;;2.58;100.00;101027.14;1779629;79;20944;-65
2021/11/15 20:45:27;;;;;;;34.70;23.65;;;;;;;2.56;100.00;101021.84;1778885;79;21464;-65
2021/11/15 20:47:55;;;;;;;33.70;23.40;;;;;;;2.54;100.00;101029.98;1782354;79;21710;-65
2021/11/15 20:50:24;;;;;;;34.73;23.30;;;;;;;2.53;100.00;101022.58;1783394;79;20963;-64
2021/11/15 20:52:52;;;;;;;34.63;23.52;;;;;;;2.50;100.00;101025.42;1783084;79;20860;-65
2021/11/15 20:55:20;;;;;;;36.05;23.57;;;;;;;2.49;100.00;101027.53;1783598;80;21374;-65
2021/11/15 20:57:50;;;;;;;35.78;23.55;;;;;;;2.51;100.00;101028.52;1781789;80;21419;-64
2021/11/15 21:00:25;;;;;;;34.65;23.67;;;;;;;2.54;100.00;101032.59;1783621;80;21228;-64
2021/11/15 21:02:54;;;;;;;34.78;23.42;;;;;;;2.56;100.00;101031.38;1783822;80;21415;-65
2021/11/15 21:05:24;;;;;;;36.48;23.55;;;;;;;2.57;100.00;101029.26;1783379;80;21343;-64
2021/11/15 21:07:52;;;;;;;35.88;22.82;;;;;;;2.59;100.00;101030.23;1783637;80;20883;-65
2021/11/15 21:10:20;;;;;;;35.83;23.83;;;;;;;2.59;100.00;101028.53;1783761;80;20903;-65
2021/11/15 21:12:48;;;;;;;32.80;22.40;;;;;;;2.60;100.00;101030.33;1779916;80;21502;-64
2021/11/15 21:15:15;;;;;;;31.25;21.75;;;;;;;2.61;100.00;101039.03;1778160;80;20868;-65
2021/11/15 21:17:44;;;;;;;31.00;22.17;;;;;;;2.61;100.00;101039.94;1783901;80;20912;-64
2021/11/15 21:20:12;;;;;;;32.42;22.70;;;;;;;2.62;100.00;101047.34;1770460;80;20888;-64
2021/11/15 21:22:44;;;;;;;30.62;21.80;;;;;;;2.62;100.00;101044.73;1782137;80;20923;-64
2021/11/15 21:25:16;;;;;;;37.38;22.62;;;;;;;2.63;100.00;101045.23;1783583;80;22110;-65
2021/11/15 21:27:47;;;;;;;31.60;21.65;;;;;;;2.66;100.00;101047.59;1784097;80;20990;-64
2021/11/15 21:30:18;;;;;;;32.73;21.73;;;;;;;2.70;100.00;101045.66;1782835;80;20883;-66
2021/11/15 21:32:46;;;;;;;29.72;20.90;;;;;;;2.75;100.00;101055.92;1774253;80;20872;-63
2021/11/15 21:35:15;;;;;;;30.62;21.07;;;;;;;2.80;100.00;101054.88;1783555;80;21391;-63
2021/11/15 21:37:43;;;;;;;30.10;20.85;;;;;;;2.79;100.00;101051.38;1782894;80;21119;-65
2021/11/15 21:40:19;;;;;;;30.35;20.60;;;;;;;2.82;100.00;101051.95;1782609;79;20908;-65
2021/11/15 21:42:46;;;;;;;28.75;20.48;;;;;;;2.82;100.00;101060.66;1769265;79;21398;-64
2021/11/15 21:45:20;;;;;;;30.08;20.55;;;;;;;2.80;100.00;101052.27;1770731;79;20849;-64
2021/11/15 21:47:49;;;;;;;29.37;19.90;;;;;;;2.79;100.00;101050.06;1782069;80;21487;-64
2021/11/15 21:50:19;;;;;;;33.50;20.45;;;;;;;2.82;100.00;101049.34;1774706;80;21791;-65
2021/11/15 21:52:47;;;;;;;32.10;20.75;;;;;;;2.83;100.00;101055.04;1783274;80;20884;-68
2021/11/15 21:55:18;;;;;;;30.92;21.20;;;;;;;2.83;100.00;101052.44;1783307;80;20880;-65
2021/11/15 21:57:46;;;;;;;28.62;20.02;;;;;;;2.87;100.00;101050.93;1783626;80;20922;-65
2021/11/15 22:00:24;;;;;;;32.55;21.45;;;;;;;2.90;100.00;101058.51;1783571;80;20876;-66
2021/11/15 22:02:52;;;;;;;29.32;19.77;;;;;;;2.91;100.00;101051.59;1783664;80;21099;-65
2021/11/15 22:05:21;;;;;;;30.72;20.00;;;;;;;2.89;100.00;101050.61;1782553;80;20919;-65
2021/11/15 22:07:49;;;;;;;27.05;19.27;;;;;;;2.92;100.00;101058.19;1783492;80;20931;-65
2021/11/15 22:10:18;;;;;;;30.12;19.82;;;;;;;2.88;100.00;101051.01;1783604;80;20896;-65
2021/11/15 22:12:48;;;;;;;26.55;18.77;;;;;;;2.86;100.00;101056.95;1783635;80;20888;-65
2021/11/15 22:15:17;;;;;;;28.60;19.15;;;;;;;2.78;100.00;101050.87;1776919;80;21105;-64
2021/11/15 22:17:47;;;;;;;28.98;19.70;;;;;;;2.69;100.00;101047.77;1782640;80;20959;-63
2021/11/15 22:20:18;;;;;;;27.87;18.92;;;;;;;2.60;100.00;101050.27;1783312;80;20931;-64
2021/11/15 22:22:45;;;;;;;27.10;18.35;;;;;;;2.51;100.00;101055.45;1781873;80;20947;-65
2021/11/15 22:25:15;;;;;;;25.27;17.95;;;;;;;2.45;100.00;101054.22;1773113;80;20910;-66
2021/11/15 22:28:02;;;;;;;27.32;18.15;;;;;;;2.41;100.00;101058.77;1771417;79;21121;-65
2021/11/15 22:30:34;;;;;;;26.73;18.92;;;;;;;2.40;100.00;101051.76;1777713;80;20880;-65
2021/11/15 22:33:02;;;;;;;;;;;;;;;2.40;100.00;101059.57;1773534;79;20873;-65
2021/11/15 22:35:35;;;;;;;30.08;19.00;;;;;;;2.36;100.00;101047.16;1743432;80;20536;-65
2021/11/15 22:38:04;;;;;;;27.95;18.30;;;;;;;2.32;100.00;101043.48;1772681;79;20941;-65
2021/11/15 22:40:45;;;;;;;26.65;17.35;;;;;;;2.31;100.00;101048.20;1769761;79;21108;-65
2021/11/15 22:43:17;;;;;;;28.50;19.00;;;;;;;2.32;100.00;101043.48;1770944;79;21342;-65
2021/11/15 22:45:51;;;;;;;27.45;18.70;;;;;;;2.35;100.00;101042.75;1773278;79;20937;-65
2021/11/15 22:48:25;;;;;;;26.95;18.30;;;;;;;2.36;100.00;101038.03;1779000;80;20983;-65
2021/11/15 22:50:56;;;;;;;29.85;18.82;;;;;;;2.35;100.00;101039.75;1782927;80;21481;-64
2021/11/15 22:53:26;;;;;;;27.15;17.85;;;;;;;2.38;100.00;101051.67;1759049;80;21428;-65
2021/11/15 22:56:02;;;;;;;26.52;17.90;;;;;;;2.35;100.00;101051.87;1754508;80;20933;-65
2021/11/15 22:58:39;;;;;;;25.00;16.95;;;;;;;2.35;100.00;101049.27;1776020;80;20907;-64
2021/11/15 23:01:24;;;;;;;27.95;17.27;;;;;;;2.37;100.00;101053.78;1774960;79;20868;-64
2021/11/15 23:03:51;;;;;;;28.27;17.67;;;;;;;2.37;100.00;101056.80;1780535;80;21435;-65
2021/11/15 23:06:27;;;;;;;27.95;16.93;;;;;;;2.38;100.00;101055.58;1783853;80;21252;-65
2021/11/15 23:09:00;;;;;;;22.98;15.60;;;;;;;2.38;100.00;101059.89;1752626;82;20931;-65
2021/11/15 23:11:40;;;;;;;23.92;15.40;;;;;;;2.39;100.00;101062.58;1752986;82;20968;-65
2021/11/15 23:14:15;;;;;;;23.85;14.80;;;;;;;2.34;100.00;101060.09;1749694;80;21426;-65
2021/11/15 23:16:47;;;;;;;20.37;14.33;;;;;;;2.34;100.00;101061.80;1779506;80;21470;-65
2021/11/15 23:19:40;;;;;;;22.45;14.35;;;;;;;2.37;100.00;101064.20;1752201;80;21427;-65
2021/11/15 23:22:19;;;;;;;20.55;14.33;;;;;;;2.37;100.00;101060.30;1755431;80;21494;-65
2021/11/15 23:24:50;;;;;;;18.37;13.32;;;;;;;2.41;100.00;101058.77;1770160;80;21450;-65
2021/11/15 23:27:33;;;;;;;20.30;13.32;;;;;;;2.43;100.00;101063.66;1776014;79;21420;-64
2021/11/15 23:30:05;;;;;;;18.27;13.08;;;;;;;2.40;100.00;101065.67;1753130;81;21479;-65
2021/11/15 23:32:39;;;;;;;18.30;12.95;;;;;;;2.39;100.00;101070.80;1752553;80;21557;-64
2021/11/15 23:35:13;;;;;;;21.77;11.60;;;;;;;2.33;100.00;101068.70;1771495;79;20912;-65
2021/11/15 23:37:50;;;;;;;16.00;12.07;;;;;;;2.30;100.00;101067.64;1779547;79;21490;-65
2021/11/15 23:40:22;;;;;;;16.52;11.65;;;;;;;2.24;100.00;101070.79;1774663;79;21455;-66
2021/11/15 23:42:52;;;;;;;17.67;11.30;;;;;;;2.24;100.00;101072.09;1775843;79;20972;-65
2021/11/15 23:45:38;;;;;;;17.48;11.00;;;;;;;2.24;100.00;101079.91;1783870;80;21455;-65
2021/11/15 23:48:10;;;;;;;16.00;10.63;;;;;;;2.23;100.00;101072.00;1780603;80;21442;-65
2021/11/15 23:50:47;;;;;;;16.62;11.33;;;;;;;2.18;100.00;101074.34;1770521;79;20895;-65
2021/11/15 23:53:25;;;;;;;18.80;10.25;;;;;;;2.15;100.00;101074.16;1768280;79;21455;-66
2021/11/15 23:56:13;;;;;;;15.23;10.78;;;;;;;2.15;100.00;101070.26;1784124;79;20828;-65
2021/11/15 23:58:41;;;;;;;14.43;9.63;;;;;;;2.18;100.00;101076.94;1780488;79;21300;-64
